Time;durP1;ratioP1;P1;durP2;ratioP2;P2;SDS_P1;SDS_P2;PMS_P1;PMS_P2;Temp;Humidity;BMP_temperature;BMP_pressure;BME280_temperature;BME280_humidity;BME280_pressure;Samples;Min_cycle;Max_cycle;Signal;HPM_P1;HPM_P2
2021/11/15 00:01:05;;;;;;;17.60;14.60;;;;;;;7.99;80.05;100797.31;4979808;28;20474;-63
2021/11/15 00:03:31;;;;;;;26.85;16.27;;;;;;;7.98;79.95;100792.97;4979629;28;20050;-63
2021/11/15 00:05:57;;;;;;;19.40;14.77;;;;;;;7.97;79.86;100787.75;4996072;28;20088;-63
2021/11/15 00:08:22;;;;;;;19.90;14.13;;;;;;;7.96;79.92;100780.84;5013667;28;20038;-63
2021/11/15 00:10:48;;;;;;;19.20;14.10;;;;;;;7.96;79.80;100788.59;4996328;28;20099;-63
2021/11/15 00:13:17;;;;;;;19.55;14.23;;;;;;;7.95;79.89;100791.97;4995989;28;20393;-64
2021/11/15 00:15:45;;;;;;;17.23;13.93;;;;;;;7.94;79.92;100798.84;4979673;28;20389;-63
2021/11/15 00:18:10;;;;;;;17.40;13.57;;;;;;;7.94;79.98;100798.84;4979647;28;20501;-63
2021/11/15 00:20:38;;;;;;;16.35;13.90;;;;;;;7.92;79.85;100800.50;5013395;28;20117;-63
2021/11/15 00:23:08;;;;;;;18.52;14.57;;;;;;;7.92;79.77;100805.66;5013362;28;20042;-63
2021/11/15 00:25:34;;;;;;;17.35;14.18;;;;;;;7.92;79.99;100798.78;4995803;28;20041;-63
2021/11/15 00:28:00;;;;;;;19.58;14.82;;;;;;;7.93;80.09;100805.72;5013356;28;20394;-63
2021/11/15 00:30:26;;;;;;;17.50;14.60;;;;;;;7.92;80.16;100803.94;4995835;28;20501;-62
2021/11/15 00:32:54;;;;;;;18.38;14.93;;;;;;;7.93;80.17;100795.38;4995744;28;20030;-64
2021/11/15 00:35:22;;;;;;;20.52;15.57;;;;;;;7.94;80.00;100804.03;5013445;28;20120;-63
2021/11/15 00:37:48;;;;;;;19.35;15.63;;;;;;;7.91;80.11;100799.59;5013338;28;20500;-63
2021/11/15 00:40:17;;;;;;;20.48;15.45;;;;;;;7.92;80.04;100803.94;4995608;28;20116;-64
2021/11/15 00:42:45;;;;;;;19.45;15.18;;;;;;;7.95;79.79;100804.88;4979674;28;20038;-62
2021/11/15 00:45:13;;;;;;;19.55;15.65;;;;;;;7.95;79.89;100794.56;4996097;28;20092;-62
2021/11/15 00:47:38;;;;;;;18.88;15.68;;;;;;;7.95;79.96;100805.75;4979418;28;20493;-63
2021/11/15 00:50:06;;;;;;;22.58;16.10;;;;;;;7.95;79.81;100802.31;5013192;28;20029;-62
2021/11/15 00:52:32;;;;;;;18.80;13.98;;;;;;;7.92;79.76;100798.78;5013010;28;20045;-62
2021/11/15 00:54:58;;;;;;;20.30;15.43;;;;;;;7.91;79.88;100791.84;5013156;28;20505;-63
2021/11/15 00:57:23;;;;;;;19.83;15.40;;;;;;;7.91;80.10;100783.25;4979430;28;20041;-62
2021/11/15 00:59:52;;;;;;;18.58;14.95;;;;;;;7.89;79.93;100790.91;5016432;28;20038;-63
2021/11/15 01:02:17;;;;;;;20.45;15.15;;;;;;;7.86;80.03;100784.75;4982678;28;20084;-62
2021/11/15 01:04:43;;;;;;;20.20;16.17;;;;;;;7.85;79.78;100786.47;5016641;28;20076;-63
2021/11/15 01:07:08;;;;;;;21.65;16.27;;;;;;;7.84;79.76;100782.13;4999073;28;20472;-63
2021/11/15 01:09:34;;;;;;;17.92;15.30;;;;;;;7.83;79.69;100787.22;5016464;28;20045;-63
2021/11/15 01:12:04;;;;;;;17.85;14.68;;;;;;;7.81;79.83;100789.75;5016478;28;20041;-63
2021/11/15 01:14:32;;;;;;;22.25;14.63;;;;;;;7.81;79.73;100784.59;4999211;28;20117;-62
2021/11/15 01:17:02;;;;;;;19.45;15.70;;;;;;;7.80;79.87;100798.31;4982914;28;20037;-63
2021/11/15 01:19:27;;;;;;;19.40;15.68;;;;;;;7.78;79.59;100793.06;5016627;28;20083;-62
2021/11/15 01:21:53;;;;;;;19.55;15.65;;;;;;;7.76;79.78;100787.00;5016222;28;20041;-63
2021/11/15 01:24:19;;;;;;;17.73;14.80;;;;;;;7.76;79.64;100787.00;4982382;28;20132;-63
2021/11/15 01:26:47;;;;;;;19.65;15.02;;;;;;;7.76;79.48;100788.69;5016680;28;20049;-63
2021/11/15 01:29:18;;;;;;;19.02;14.93;;;;;;;7.73;79.58;100789.44;5016168;28;20088;-62
2021/11/15 01:31:44;;;;;;;17.05;13.88;;;;;;;7.74;79.67;100780.00;4982267;28;20043;-63
2021/11/15 01:34:09;;;;;;;20.75;15.77;;;;;;;7.75;79.48;100781.75;5016087;28;20033;-63
2021/11/15 01:36:35;;;;;;;22.13;15.35;;;;;;;7.76;79.61;100783.50;5016002;28;20052;-63
2021/11/15 01:39:02;;;;;;;17.90;14.10;;;;;;;7.74;79.67;100774.81;5015909;28;20500;-63
2021/11/15 01:41:33;;;;;;;17.83;13.27;;;;;;;7.76;79.63;100774.09;4982620;28;20042;-64
2021/11/15 01:44:01;;;;;;;19.10;15.45;;;;;;;7.75;79.75;100766.28;4998843;28;20033;-63
2021/11/15 01:46:27;;;;;;;16.63;13.23;;;;;;;7.75;79.74;100774.91;4998151;28;20038;-62
2021/11/15 01:48:55;;;;;;;18.60;14.88;;;;;;;7.76;79.56;100774.09;4997701;28;20046;-63
2021/11/15 01:51:21;;;;;;;23.67;15.02;;;;;;;7.78;79.71;100764.69;4998255;28;20041;-63
2021/11/15 01:53:47;;;;;;;20.02;14.45;;;;;;;7.78;79.77;100762.09;5016127;28;20119;-63
2021/11/15 01:56:15;;;;;;;20.35;15.30;;;;;;;7.78;79.85;100769.84;5015655;28;20041;-63
2021/11/15 01:58:43;;;;;;;16.10;14.40;;;;;;;7.80;79.57;100766.44;4981928;28;20038;-63
2021/11/15 02:01:11;;;;;;;17.23;15.32;;;;;;;7.76;79.70;100763.78;4998501;28;20042;-63
2021/11/15 02:03:42;;;;;;;19.25;14.20;;;;;;;7.78;79.55;100769.84;5015528;28;20030;-63
2021/11/15 02:06:10;;;;;;;20.52;15.45;;;;;;;7.79;79.76;100773.31;4998188;28;20065;-63
2021/11/15 02:08:37;;;;;;;19.33;15.20;;;;;;;7.80;79.56;100769.03;4981788;28;20041;-62
2021/11/15 02:11:03;;;;;;;19.40;15.68;;;;;;;7.81;79.60;100773.38;4998079;28;20044;-63
2021/11/15 02:13:37;;;;;;;20.75;16.60;;;;;;;7.81;79.88;100781.09;4981683;28;20034;-63
2021/11/15 02:16:03;;;;;;;20.83;16.15;;;;;;;7.82;79.57;100786.34;5015211;28;20397;-63
2021/11/15 02:18:29;;;;;;;20.85;15.63;;;;;;;7.83;79.77;100789.78;5015479;28;20045;-64
2021/11/15 02:21:00;;;;;;;20.63;15.88;;;;;;;7.82;79.63;100781.19;5014834;28;20493;-63
2021/11/15 02:23:37;;;;;;;24.10;17.35;;;;;;;7.85;79.69;100780.41;4981338;28;20497;-62
2021/11/15 02:26:08;;;;;;;20.75;16.75;;;;;;;7.85;79.62;100783.91;5015417;28;20084;-63
2021/11/15 02:28:40;;;;;;;20.48;16.63;;;;;;;7.86;79.41;100780.47;4981408;28;20053;-63
2021/11/15 02:31:09;;;;;;;23.40;17.27;;;;;;;7.86;79.72;100793.38;4981221;28;20064;-63
2021/11/15 02:33:35;;;;;;;21.83;16.95;;;;;;;7.88;79.89;100784.00;4981180;28;20084;-62
2021/11/15 02:36:04;;;;;;;19.67;16.10;;;;;;;7.89;79.64;100784.88;5015659;28;20049;-63
2021/11/15 02:38:30;;;;;;;22.15;17.90;;;;;;;7.88;79.69;100781.41;4997391;28;20060;-62
2021/11/15 02:40:56;;;;;;;23.05;18.33;;;;;;;7.90;79.84;100786.66;4997125;28;20393;-63
2021/11/15 02:43:23;;;;;;;21.55;18.13;;;;;;;7.89;79.46;100780.59;5015081;28;20034;-63
2021/11/15 02:45:49;;;;;;;22.95;18.67;;;;;;;7.90;79.38;100781.47;4997155;28;20040;-62
2021/11/15 02:48:21;;;;;;;21.67;18.70;;;;;;;7.89;79.81;100775.44;5014730;28;20029;-63
2021/11/15 02:50:47;;;;;;;21.90;18.25;;;;;;;7.89;79.61;100772.84;4981413;28;20038;-63
2021/11/15 02:53:16;;;;;;;25.90;20.27;;;;;;;7.89;79.52;100771.97;5014906;28;20056;-62
2021/11/15 02:55:44;;;;;;;24.90;19.27;;;;;;;7.88;79.67;100768.50;4980990;28;20044;-62
2021/11/15 02:58:12;;;;;;;24.20;19.65;;;;;;;7.88;79.67;100763.34;4980835;28;20048;-63
2021/11/15 03:00:46;;;;;;;23.63;19.45;;;;;;;7.88;79.63;100760.75;4996785;28;20509;-63
2021/11/15 03:03:15;;;;;;;24.98;19.63;;;;;;;7.89;79.77;100767.69;4996881;28;20085;-63
2021/11/15 03:05:44;;;;;;;24.45;19.73;;;;;;;7.88;79.49;100765.91;5014458;28;20128;-64
2021/11/15 03:08:10;;;;;;;24.30;19.52;;;;;;;7.89;79.67;100766.81;4980815;28;20037;-63
2021/11/15 03:10:37;;;;;;;24.55;19.73;;;;;;;7.88;79.38;100760.75;4996724;28;20045;-63
2021/11/15 03:13:06;;;;;;;25.50;19.83;;;;;;;7.92;79.57;100764.38;4996663;28;20076;-63
2021/11/15 03:15:38;;;;;;;25.63;20.90;;;;;;;7.91;79.52;100757.44;5014266;28;20038;-63
2021/11/15 03:18:13;;;;;;;25.33;20.73;;;;;;;7.90;79.72;100773.75;4996866;28;20070;-63
2021/11/15 03:20:43;;;;;;;28.05;21.85;;;;;;;7.90;79.71;100766.88;5013530;28;20060;-63
2021/11/15 03:23:15;;;;;;;27.70;20.95;;;;;;;7.91;79.32;100772.94;4980314;28;20041;-62
2021/11/15 03:25:44;;;;;;;27.63;21.60;;;;;;;7.90;79.77;100777.19;5014349;28;20041;-63
2021/11/15 03:28:14;;;;;;;26.60;22.13;;;;;;;7.90;79.80;100769.44;4980284;28;20604;-63
2021/11/15 03:30:41;;;;;;;28.48;21.90;;;;;;;7.90;79.67;100768.59;4980183;28;20038;-62
2021/11/15 03:33:10;;;;;;;25.38;21.55;;;;;;;7.90;79.75;100766.88;4996337;28;20409;-62
2021/11/15 03:35:38;;;;;;;28.30;21.35;;;;;;;7.91;79.84;100766.03;5013947;28;20037;-63
2021/11/15 03:38:04;;;;;;;28.25;21.80;;;;;;;7.93;79.54;100774.72;4996478;28;20040;-62
2021/11/15 03:40:31;;;;;;;29.05;22.77;;;;;;;7.92;79.60;100772.09;5013731;28;20050;-63
2021/11/15 03:43:00;;;;;;;31.00;22.30;;;;;;;7.93;79.57;100774.72;5013831;28;20041;-62
2021/11/15 03:45:30;;;;;;;27.55;22.45;;;;;;;7.91;79.63;100773.78;4979975;28;20444;-64
2021/11/15 03:48:02;;;;;;;30.58;22.90;;;;;;;7.91;79.79;100778.09;4996758;28;20034;-62
2021/11/15 03:50:30;;;;;;;32.10;23.13;;;;;;;7.92;79.44;100779.84;4995699;28;20092;-63
2021/11/15 03:52:57;;;;;;;31.90;22.48;;;;;;;7.92;79.90;100772.09;5013652;28;20132;-63
2021/11/15 03:55:24;;;;;;;28.85;23.23;;;;;;;7.92;79.76;100770.38;5013499;28;20088;-62
2021/11/15 03:57:51;;;;;;;29.33;23.20;;;;;;;7.91;79.49;100770.34;4979862;28;20444;-62
2021/11/15 04:00:20;;;;;;;28.63;23.38;;;;;;;7.91;79.75;100765.19;4979913;28;20034;-62
2021/11/15 04:02:53;;;;;;;31.10;24.20;;;;;;;7.92;79.56;100764.38;4979391;28;20084;-62
2021/11/15 04:05:27;;;;;;;30.42;24.45;;;;;;;7.91;79.78;100758.31;5013834;28;20034;-63
2021/11/15 04:07:53;;;;;;;31.95;24.77;;;;;;;7.90;79.56;100760.84;4996091;28;20124;-62
2021/11/15 04:10:24;;;;;;;32.47;24.83;;;;;;;7.90;79.74;100764.28;4979747;28;20490;-63
2021/11/15 04:12:52;;;;;;;32.20;24.70;;;;;;;7.90;79.81;100755.69;4979817;28;20034;-62
2021/11/15 04:15:17;;;;;;;31.60;24.52;;;;;;;7.88;79.66;100757.31;4979804;28;20493;-62
2021/11/15 04:17:44;;;;;;;31.23;24.02;;;;;;;7.87;79.64;100751.25;5013395;28;20040;-63
2021/11/15 04:20:18;;;;;;;29.50;23.17;;;;;;;7.86;79.86;100757.22;4979656;28;20037;-63
2021/11/15 04:22:46;;;;;;;31.60;23.80;;;;;;;7.88;79.74;100762.47;4996198;28;20040;-63
2021/11/15 04:25:12;;;;;;;34.28;24.70;;;;;;;7.90;79.71;100759.13;4979933;28;20038;-63
2021/11/15 04:27:38;;;;;;;32.97;24.38;;;;;;;7.90;79.72;100756.53;4979642;28;20032;-63
2021/11/15 04:30:09;;;;;;;31.17;24.75;;;;;;;7.90;79.78;100759.13;5013344;28;20070;-63
2021/11/15 04:32:41;;;;;;;32.70;24.48;;;;;;;7.88;79.92;100755.59;5014598;28;20041;-63
2021/11/15 04:35:18;;;;;;;28.48;23.95;;;;;;;7.89;79.60;100752.19;4999913;28;20104;-63
2021/11/15 04:37:44;;;;;;;32.67;25.42;;;;;;;7.90;79.70;100759.13;4999831;28;20037;-63
2021/11/15 04:40:10;;;;;;;29.70;24.48;;;;;;;7.91;79.84;100758.31;5017199;28;20121;-63
2021/11/15 04:42:39;;;;;;;32.13;24.85;;;;;;;7.91;79.68;100766.03;4983290;28;20486;-63
2021/11/15 04:45:06;;;;;;;34.70;25.15;;;;;;;7.90;79.77;100766.00;5016907;28;20060;-63
2021/11/15 04:47:31;;;;;;;30.83;24.50;;;;;;;7.92;79.50;100764.38;5017192;28;20045;-64
2021/11/15 04:49:57;;;;;;;33.97;26.05;;;;;;;7.92;79.53;100759.19;4983107;28;20149;-62
2021/11/15 04:52:25;;;;;;;32.10;25.77;;;;;;;7.91;79.66;100763.47;4999385;28;20493;-63
2021/11/15 04:54:51;;;;;;;37.55;25.77;;;;;;;7.89;79.73;100759.06;4983509;28;20049;-63
2021/11/15 04:57:18;;;;;;;35.88;26.63;;;;;;;7.88;79.92;100760.75;4983038;28;20056;-62
2021/11/15 04:59:47;;;;;;;31.25;25.00;;;;;;;7.88;79.91;100754.72;4999298;28;20573;-62
2021/11/15 05:02:13;;;;;;;35.25;25.67;;;;;;;7.87;79.85;100771.91;4982972;28;20048;-62
2021/11/15 05:04:39;;;;;;;33.92;26.40;;;;;;;7.89;79.58;100766.81;4982842;28;20553;-63
2021/11/15 05:07:05;;;;;;;33.65;25.55;;;;;;;7.87;79.55;100768.47;5016461;28;20153;-63
2021/11/15 05:09:31;;;;;;;33.05;25.20;;;;;;;7.90;79.57;100766.00;4998930;28;20045;-63
2021/11/15 05:12:01;;;;;;;33.33;24.63;;;;;;;7.87;79.67;100766.75;4999341;28;20038;-64
2021/11/15 05:14:31;;;;;;;31.77;24.63;;;;;;;7.87;79.60;100760.72;4982627;28;20038;-62
2021/11/15 05:17:00;;;;;;;32.63;26.33;;;;;;;7.87;79.48;100760.72;4998499;28;20133;-63
2021/11/15 05:19:28;;;;;;;29.30;23.92;;;;;;;7.87;79.68;100761.56;4998778;28;20541;-62
2021/11/15 05:21:54;;;;;;;33.05;25.60;;;;;;;7.89;79.60;100766.81;4998653;28;20121;-62
2021/11/15 05:24:22;;;;;;;32.78;27.63;;;;;;;7.90;79.67;100763.41;5016297;28;20450;-63
2021/11/15 05:26:48;;;;;;;35.25;27.10;;;;;;;7.87;79.74;100761.56;4998468;28;20382;-62
2021/11/15 05:29:15;;;;;;;31.35;24.67;;;;;;;7.88;79.61;100757.31;5016216;28;20065;-62
2021/11/15 05:31:40;;;;;;;34.80;26.77;;;;;;;7.87;79.76;100765.88;5016788;28;20571;-63
2021/11/15 05:34:07;;;;;;;32.67;26.27;;;;;;;7.85;79.38;100757.19;5016103;28;20092;-63
2021/11/15 05:36:33;;;;;;;41.58;27.83;;;;;;;7.85;79.78;100762.34;4998662;28;20050;-62
2021/11/15 05:38:59;;;;;;;32.55;26.60;;;;;;;7.87;79.69;100763.28;5015979;28;20533;-62
2021/11/15 05:41:25;;;;;;;30.45;24.77;;;;;;;7.88;79.65;100762.47;5015827;28;20058;-63
2021/11/15 05:43:51;;;;;;;33.83;27.63;;;;;;;7.89;79.64;100754.78;5015219;28;20076;-62
2021/11/15 05:46:17;;;;;;;35.72;26.80;;;;;;;7.89;79.31;100759.94;4998257;28;20061;-63
2021/11/15 05:48:45;;;;;;;32.42;25.08;;;;;;;7.90;79.68;100750.50;4998597;28;20041;-63
2021/11/15 05:51:13;;;;;;;32.83;26.42;;;;;;;7.91;79.73;100749.69;5016036;28;20489;-63
2021/11/15 05:53:41;;;;;;;36.22;28.70;;;;;;;7.90;79.72;100755.69;4981980;28;20037;-62
2021/11/15 05:56:09;;;;;;;34.13;25.92;;;;;;;7.92;79.61;100759.19;4981735;28;20080;-63
2021/11/15 05:58:37;;;;;;;36.97;27.42;;;;;;;7.90;79.59;100766.00;4982478;28;20042;-62
2021/11/15 06:01:03;;;;;;;36.05;27.73;;;;;;;7.88;79.94;100763.34;4997925;28;20041;-62
2021/11/15 06:03:31;;;;;;;34.67;26.23;;;;;;;7.91;79.92;100765.19;5015581;28;20053;-63
2021/11/15 06:06:00;;;;;;;35.95;28.40;;;;;;;7.89;79.80;100765.09;4981690;28;20049;-63
2021/11/15 06:08:25;;;;;;;35.83;27.27;;;;;;;7.87;79.73;100760.72;5015416;28;20041;-63
2021/11/15 06:10:53;;;;;;;36.47;29.08;;;;;;;7.88;79.69;100768.50;4997873;28;20049;-62
2021/11/15 06:13:19;;;;;;;40.45;27.88;;;;;;;7.87;79.65;100769.31;5015402;28;20042;-62
2021/11/15 06:15:47;;;;;;;36.88;29.27;;;;;;;7.87;79.85;100771.91;4981846;28;20405;-63
2021/11/15 06:18:14;;;;;;;37.50;27.92;;;;;;;7.88;79.81;100775.38;5015394;28;20057;-63
2021/11/15 06:20:41;;;;;;;39.00;29.70;;;;;;;7.87;79.65;100777.06;4981422;28;20042;-63
2021/11/15 06:23:06;;;;;;;37.90;27.45;;;;;;;7.89;79.60;100782.31;4981360;28;20560;-64
2021/11/15 06:25:34;;;;;;;43.78;30.35;;;;;;;7.87;79.49;100779.66;4997237;28;20132;-62
2021/11/15 06:28:02;;;;;;;39.40;29.00;;;;;;;7.86;79.68;100779.59;5015084;28;20547;-62
2021/11/15 06:30:28;;;;;;;39.38;28.30;;;;;;;7.88;79.73;100775.38;4981272;28;20041;-63
2021/11/15 06:32:54;;;;;;;38.78;29.80;;;;;;;7.87;79.83;100771.03;4997531;28;20065;-64
2021/11/15 06:35:20;;;;;;;40.75;30.13;;;;;;;7.87;79.41;100774.47;5014917;28;20038;-62
2021/11/15 06:37:49;;;;;;;36.33;28.25;;;;;;;7.87;79.38;100771.91;5015135;28;20041;-63
2021/11/15 06:40:16;;;;;;;36.35;28.92;;;;;;;7.89;79.73;100769.41;4981661;28;20034;-62
2021/11/15 06:45:13;;;;;;;40.25;29.17;;;;;;;7.87;79.43;100758.13;5111547;27;20253;-62
2021/11/15 06:47:40;;;;;;;37.00;28.70;;;;;;;7.87;79.85;100758.13;5093320;28;20127;-63
2021/11/15 06:50:07;;;;;;;34.45;25.85;;;;;;;7.87;79.76;100764.16;5093376;28;20044;-63
2021/11/15 06:52:36;;;;;;;37.13;28.10;;;;;;;7.87;79.56;100758.13;5111175;28;20043;-63
2021/11/15 06:55:06;;;;;;;36.20;29.05;;;;;;;7.87;79.68;100763.28;5110050;28;20035;-63
2021/11/15 06:57:31;;;;;;;38.53;27.85;;;;;;;7.89;79.47;100766.81;5110214;28;20071;-63
2021/11/15 06:59:57;;;;;;;35.92;28.55;;;;;;;7.87;79.72;100764.16;5111124;28;20083;-63
2021/11/15 07:02:25;;;;;;;36.97;27.42;;;;;;;7.88;79.70;100772.81;5092831;28;20028;-62
2021/11/15 07:04:53;;;;;;;37.17;29.23;;;;;;;7.88;79.41;100768.50;5092753;28;20073;-63
2021/11/15 07:07:19;;;;;;;36.10;28.08;;;;;;;7.87;79.74;100778.78;5093235;28;20040;-62
2021/11/15 07:09:47;;;;;;;36.47;27.88;;;;;;;7.88;79.59;100780.53;5109979;28;20368;-63
2021/11/15 07:12:19;;;;;;;36.67;28.65;;;;;;;7.90;79.56;100791.81;5110901;28;20031;-63
2021/11/15 07:14:47;;;;;;;36.70;28.77;;;;;;;7.88;79.82;100791.72;5092856;28;20039;-62
2021/11/15 07:17:21;;;;;;;46.20;28.98;;;;;;;7.87;79.79;100802.00;5109780;28;20127;-63
2021/11/15 07:19:47;;;;;;;34.05;26.40;;;;;;;7.87;79.79;100805.44;5092469;28;20063;-63
2021/11/15 07:22:14;;;;;;;39.97;29.90;;;;;;;7.88;79.71;100812.38;5092339;28;20495;-63
2021/11/15 07:24:40;;;;;;;34.72;26.48;;;;;;;7.89;79.66;100810.69;5109591;28;20035;-63
2021/11/15 07:27:06;;;;;;;38.90;29.05;;;;;;;7.87;79.96;100802.88;5110770;28;20125;-63
2021/11/15 07:29:32;;;;;;;35.22;27.63;;;;;;;7.88;79.78;100809.78;5110765;28;20593;-63
2021/11/15 07:32:09;;;;;;;35.47;27.58;;;;;;;7.87;79.75;100815.78;5109482;28;20172;-63
2021/11/15 07:34:34;;;;;;;36.17;28.45;;;;;;;7.88;80.01;100814.09;5092495;28;20140;-63
2021/11/15 07:37:05;;;;;;;37.03;28.00;;;;;;;7.88;79.56;100824.41;5110530;28;20490;-63
2021/11/15 07:39:42;;;;;;;37.25;26.85;;;;;;;7.88;79.90;100811.50;5092381;28;20027;-63
2021/11/15 07:42:16;;;;;;;37.80;28.50;;;;;;;7.87;79.84;100814.91;5109302;28;20106;-63
2021/11/15 07:44:48;;;;;;;;;;;;;;;7.83;79.86;100813.03;5092390;28;20051;-63
2021/11/15 07:47:19;;;;;;;37.83;29.17;;;;;;;7.83;79.82;100810.44;5110539;28;19916;-63
2021/11/15 07:49:47;;;;;;;36.83;28.08;;;;;;;7.82;79.78;100822.47;5110415;28;20142;-62
2021/11/15 07:52:19;;;;;;;39.10;27.85;;;;;;;7.83;79.50;100810.44;5091960;28;20438;-62
2021/11/15 07:54:53;;;;;;;36.28;28.17;;;;;;;7.83;79.94;100808.75;5106655;28;20043;-62
2021/11/15 07:57:20;;;;;;;39.45;30.25;;;;;;;7.84;79.59;100819.94;5129406;27;20043;-62
2021/11/15 07:59:49;;;;;;;37.15;28.45;;;;;;;7.82;79.69;100819.91;5078952;28;20403;-63
2021/11/15 08:02:14;;;;;;;34.90;27.15;;;;;;;7.81;79.79;100820.72;5078152;28;20040;-62
2021/11/15 08:04:41;;;;;;;36.50;28.52;;;;;;;7.83;79.77;100810.44;5095149;28;20055;-63
2021/11/15 08:07:12;;;;;;;36.88;28.40;;;;;;;7.81;79.42;100810.41;5095288;28;20031;-63
2021/11/15 08:09:42;;;;;;;36.13;28.45;;;;;;;7.81;79.42;100817.25;5078239;28;20051;-63
2021/11/15 08:12:12;;;;;;;39.65;28.02;;;;;;;7.79;79.75;100817.19;5096387;28;20035;-62
2021/11/15 08:14:42;;;;;;;40.10;29.60;;;;;;;7.78;79.41;100824.03;5096000;28;20040;-62
2021/11/15 08:17:11;;;;;;;37.13;27.50;;;;;;;7.77;79.69;100819.72;5095114;28;20437;-63
2021/11/15 08:19:38;;;;;;;33.47;26.88;;;;;;;7.78;79.74;100820.59;5078035;28;20079;-62
2021/11/15 08:22:04;;;;;;;37.63;29.63;;;;;;;7.79;79.69;100819.78;5096316;28;20051;-63
2021/11/15 08:24:53;;;;;;;36.90;29.55;;;;;;;7.79;79.65;100819.78;5095807;28;20036;-63
2021/11/15 08:27:23;;;;;;;39.03;28.58;;;;;;;7.81;79.59;100815.56;5076050;28;20564;-62
2021/11/15 08:29:48;;;;;;;38.72;28.90;;;;;;;7.80;79.61;100812.91;5077536;28;20040;-63
2021/11/15 08:32:15;;;;;;;37.35;29.10;;;;;;;7.82;79.64;100808.69;5095991;28;20070;-63
2021/11/15 08:34:43;;;;;;;40.70;31.40;;;;;;;7.81;79.71;100810.41;5077722;28;20075;-64
2021/11/15 08:37:10;;;;;;;42.10;30.38;;;;;;;7.80;79.99;100815.47;5094441;28;20036;-64
2021/11/15 08:39:39;;;;;;;37.92;29.50;;;;;;;7.81;79.82;100818.13;5077487;28;20471;-64
2021/11/15 08:42:10;;;;;;;39.88;28.50;;;;;;;7.81;79.51;100817.25;5094449;28;20042;-64
2021/11/15 08:44:41;;;;;;;39.55;29.63;;;;;;;7.82;79.36;100817.31;5095439;28;20070;-63
2021/11/15 08:47:09;;;;;;;41.08;30.73;;;;;;;7.80;79.96;100818.94;5077448;28;20032;-63
2021/11/15 08:49:36;;;;;;;40.78;31.40;;;;;;;7.81;79.68;100810.41;5095406;28;20036;-63
2021/11/15 08:52:04;;;;;;;41.03;30.30;;;;;;;7.82;79.75;100819.91;5095418;28;20075;-63
2021/11/15 08:54:39;;;;;;;39.70;31.05;;;;;;;7.82;79.68;100816.41;5094571;28;20039;-63
2021/11/15 08:57:06;;;;;;;42.88;30.10;;;;;;;7.82;79.98;100821.59;5077625;28;20032;-63
2021/11/15 08:59:32;;;;;;;44.00;31.38;;;;;;;7.81;79.47;100819.81;5095204;28;20032;-63
2021/11/15 09:01:58;;;;;;;41.42;31.17;;;;;;;7.81;79.85;100815.56;5093832;28;20032;-63
2021/11/15 09:04:24;;;;;;;42.25;30.45;;;;;;;7.81;79.64;100818.13;5093258;28;20036;-63
2021/11/15 09:06:55;;;;;;;45.45;34.13;;;;;;;7.80;79.81;100823.22;5093959;28;20032;-62
2021/11/15 09:09:28;;;;;;;41.45;30.70;;;;;;;7.80;79.83;100816.38;5093825;28;20048;-64
2021/11/15 09:12:02;;;;;;;44.08;32.20;;;;;;;7.80;79.65;100823.22;5111282;27;20055;-64
2021/11/15 09:14:28;;;;;;;46.15;32.75;;;;;;;7.79;79.73;100824.94;5093894;28;20036;-63
2021/11/15 09:16:53;;;;;;;43.33;32.00;;;;;;;7.83;79.35;100831.09;5094882;28;20032;-62
2021/11/15 09:19:23;;;;;;;43.97;31.55;;;;;;;7.84;79.81;100822.53;5093934;28;20071;-63
2021/11/15 09:21:54;;;;;;;45.72;32.53;;;;;;;7.83;79.64;100820.75;5076645;28;20434;-63
2021/11/15 09:24:23;;;;;;;44.60;33.67;;;;;;;7.81;79.89;100823.31;5094749;28;20078;-62
2021/11/15 09:26:50;;;;;;;43.35;29.23;;;;;;;7.81;79.89;100819.81;5093554;28;20036;-63
2021/11/15 09:29:18;;;;;;;45.42;31.33;;;;;;;7.78;79.67;100826.63;5094950;28;20036;-63
2021/11/15 09:31:46;;;;;;;45.05;33.28;;;;;;;7.78;80.09;100825.75;5093762;28;20115;-63
2021/11/15 09:34:16;;;;;;;46.53;33.00;;;;;;;7.79;79.62;100830.09;5094374;28;20033;-64
2021/11/15 09:36:44;;;;;;;40.40;30.33;;;;;;;7.78;79.85;100834.34;5094560;28;20027;-63
2021/11/15 09:39:15;;;;;;;44.45;31.75;;;;;;;7.78;79.44;100833.50;5093263;28;20177;-63
2021/11/15 09:41:44;;;;;;;42.97;29.88;;;;;;;7.80;79.25;100831.84;5076442;28;20032;-63
2021/11/15 09:44:14;;;;;;;40.38;29.73;;;;;;;7.81;79.58;100827.56;5093129;28;20079;-63
2021/11/15 09:46:40;;;;;;;43.03;30.92;;;;;;;7.83;79.61;100836.25;5094397;28;20038;-63
2021/11/15 09:49:12;;;;;;;45.53;30.52;;;;;;;7.82;79.67;100832.81;5094910;28;20058;-63
2021/11/15 09:51:46;;;;;;;46.90;31.65;;;;;;;7.81;79.94;100833.63;5092610;28;20036;-63
2021/11/15 09:54:14;;;;;;;43.85;30.55;;;;;;;7.81;79.57;100833.63;5093199;28;20028;-62
2021/11/15 09:56:44;;;;;;;43.55;28.50;;;;;;;7.77;79.79;100827.47;5075990;28;20044;-62
2021/11/15 09:59:12;;;;;;;43.20;29.17;;;;;;;7.79;79.66;100827.50;5093508;28;20036;-63
2021/11/15 10:01:43;;;;;;;45.88;30.17;;;;;;;7.78;79.62;100820.59;5094165;28;20040;-63
2021/11/15 10:04:13;;;;;;;43.75;30.00;;;;;;;7.79;79.91;100822.34;5075865;28;20499;-62
2021/11/15 10:06:43;;;;;;;42.83;29.48;;;;;;;7.77;79.78;100822.31;5092971;28;20066;-62
2021/11/15 10:09:09;;;;;;;41.67;30.00;;;;;;;7.77;79.64;100827.47;5076072;28;20032;-62
2021/11/15 10:11:50;;;;;;;46.42;28.90;;;;;;;7.78;79.86;100823.16;5093995;28;20040;-63
2021/11/15 10:14:17;;;;;;;45.78;29.83;;;;;;;7.80;79.73;100820.63;5092826;28;20036;-63
2021/11/15 10:17:01;;;;;;;45.53;29.52;;;;;;;7.80;79.63;100813.78;5092856;28;20074;-64
2021/11/15 10:19:32;;;;;;;39.80;25.95;;;;;;;7.80;79.58;100816.38;5092486;28;20038;-61
2021/11/15 10:22:05;;;;;;;38.45;27.35;;;;;;;7.80;79.71;100816.38;5092920;28;20039;-62
2021/11/15 10:24:41;;;;;;;39.85;26.00;;;;;;;7.78;79.93;100811.13;5093907;28;20035;-63
2021/11/15 10:27:12;;;;;;;40.75;27.65;;;;;;;7.78;79.78;100811.13;5093796;28;20063;-64
2021/11/15 10:29:45;;;;;;;39.10;27.20;;;;;;;7.77;79.89;100814.56;5109586;28;20039;-62
2021/11/15 10:32:14;;;;;;;39.25;27.33;;;;;;;7.77;79.92;100813.66;5093645;28;20032;-63
2021/11/15 10:34:53;;;;;;;40.60;26.73;;;;;;;7.77;79.65;100813.66;5075578;28;20036;-64
2021/11/15 10:37:37;;;;;;;38.83;25.88;;;;;;;7.76;79.73;100817.06;5093856;28;20051;-63
2021/11/15 10:40:06;;;;;;;38.13;25.35;;;;;;;7.76;80.15;100817.06;5092310;28;20071;-63
2021/11/15 10:42:37;;;;;;;37.67;25.65;;;;;;;7.76;79.87;100815.38;5075388;28;20530;-62
2021/11/15 10:45:13;;;;;;;40.03;26.10;;;;;;;7.76;80.03;100814.47;5075052;28;20071;-63
2021/11/15 10:47:45;;;;;;;37.08;25.67;;;;;;;7.75;79.93;100817.88;5075328;28;20078;-63
2021/11/15 10:50:27;;;;;;;40.05;27.27;;;;;;;7.76;79.82;100811.91;5093716;28;20105;-62
2021/11/15 10:53:25;;;;;;;40.53;27.08;;;;;;;7.76;79.83;100809.31;5092216;28;20127;-63
2021/11/15 10:56:16;;;;;;;39.35;24.65;;;;;;;7.74;79.79;100801.53;5093514;28;20089;-63
2021/11/15 10:58:44;;;;;;;39.25;26.77;;;;;;;7.75;79.91;100807.56;5075599;28;20043;-63
2021/11/15 11:01:16;;;;;;;40.45;26.70;;;;;;;7.76;79.87;100804.16;5092015;28;20036;-63
2021/11/15 11:03:42;;;;;;;36.53;25.83;;;;;;;7.77;79.61;100803.34;5093357;28;20426;-62
2021/11/15 11:06:14;;;;;;;38.22;25.85;;;;;;;7.76;80.00;100799.00;5075623;28;20076;-63
2021/11/15 11:08:46;;;;;;;41.42;26.73;;;;;;;7.76;79.69;100799.91;5093244;28;20456;-62
2021/11/15 11:11:25;;;;;;;41.38;27.02;;;;;;;7.78;79.62;100805.09;5093373;28;20062;-63
2021/11/15 11:13:57;;;;;;;36.67;25.25;;;;;;;7.77;79.77;100799.06;5093310;28;20093;-62
2021/11/15 11:16:37;;;;;;;36.78;24.70;;;;;;;7.80;79.86;100802.56;5092375;28;20028;-63
2021/11/15 11:19:17;;;;;;;41.50;26.58;;;;;;;7.79;79.76;100799.13;5093236;28;20036;-63
2021/11/15 11:24:58;;;;;;;40.53;26.52;;;;;;;7.78;79.95;100793.06;5093061;28;20064;-62
2021/11/15 11:27:26;;;;;;;38.42;26.73;;;;;;;7.80;79.78;100789.66;5093377;28;20039;-63
2021/11/15 11:29:57;;;;;;;40.70;27.98;;;;;;;7.80;79.85;100787.09;5075596;28;20058;-63